Time;durP1;ratioP1;P1;durP2;ratioP2;P2;SDS_P1;SDS_P2;PMS_P1;PMS_P2;Temp;Humidity;BMP_temperature;BMP_pressure;BME280_temperature;BME280_humidity;BME280_pressure;Samples;Min_cycle;Max_cycle;Signal;HPM_P1;HPM_P2
2021/11/07 00:05:01;;;;;;;8.75;4.53;;;10.50;66.20;;;;;;5052448;28;20032;-72
2021/11/07 00:07:53;;;;;;;7.63;4.47;;;10.50;66.00;;;;;;5052479;28;20071;-72
2021/11/07 00:12:54;;;;;;;9.07;4.65;;;10.50;65.90;;;;;;5052367;28;20029;-73
2021/11/07 00:15:21;;;;;;;9.20;4.60;;;10.60;65.90;;;;;;5052756;28;20112;-72
2021/11/07 00:17:53;;;;;;;7.47;4.32;;;10.60;65.90;;;;;;5052297;28;20098;-73
2021/11/07 00:20:26;;;;;;;7.05;4.57;;;10.60;65.90;;;;;;5052299;28;20031;-73
2021/11/07 00:25:50;;;;;;;7.40;4.15;;;10.70;66.00;;;;;;5052701;28;20087;-72
2021/11/07 00:28:29;;;;;;;8.70;4.30;;;10.70;66.00;;;;;;5052150;28;20025;-72
2021/11/07 00:44:06;;;;;;;7.03;4.73;;;10.90;67.20;;;;;;5055907;28;20488;-72
2021/11/07 00:46:46;;;;;;;7.68;4.88;;;10.90;67.00;;;;;;5055601;28;20021;-73
2021/11/07 00:49:18;;;;;;;7.47;4.43;;;10.90;67.00;;;;;;5055420;28;20044;-73
2021/11/07 00:55:00;;;;;;;8.43;4.72;;;10.90;66.80;;;;;;5013846;28;20074;-73
2021/11/07 01:00:08;;;;;;;7.28;4.57;;;10.90;67.00;;;;;;5039034;28;20025;-72
2021/11/07 01:02:37;;;;;;;8.93;4.43;;;11.00;66.50;;;;;;5055125;28;20532;-72
2021/11/07 01:05:16;;;;;;;6.45;3.90;;;10.90;66.80;;;;;;5055066;28;20095;-72
2021/11/07 01:07:42;;;;;;;9.25;4.63;;;11.00;66.60;;;;;;5055320;28;20071;-73
2021/11/07 01:10:08;;;;;;;5.68;4.05;;;11.00;66.30;;;;;;5055091;28;20504;-72
2021/11/07 01:12:34;;;;;;;7.32;4.18;;;11.00;66.80;;;;;;5055283;28;20021;-73
2021/11/07 01:15:00;;;;;;;6.47;3.58;;;;;;;;;;5055287;28;20115;-73
2021/11/07 01:17:26;;;;;;;10.88;4.55;;;;;;;;;;5055035;28;20033;-72
2021/11/07 01:19:54;;;;;;;5.95;3.88;;;;;;;;;;5054902;28;20031;-73
2021/11/07 01:22:30;;;;;;;9.32;3.97;;;11.20;85.70;;;;;;5055004;28;20107;-72
2021/11/07 01:24:59;;;;;;;5.50;3.50;;;11.20;77.80;;;;;;5055156;28;20474;-72
2021/11/07 01:27:31;;;;;;;5.07;3.17;;;11.20;69.90;;;;;;5054722;28;20381;-72
2021/11/07 01:29:59;;;;;;;6.10;3.60;;;11.20;75.50;;;;;;5053614;28;20116;-72
2021/11/07 01:32:26;;;;;;;7.50;4.05;;;;;;;;;;5053747;28;20025;-72
2021/11/07 01:35:04;;;;;;;10.10;3.70;;;;;;;;;;5054919;28;20150;-72
2021/11/07 01:37:36;;;;;;;5.63;3.50;;;;;;;;;;5054325;28;20402;-72
2021/11/07 01:40:11;;;;;;;5.25;3.42;;;;;;;;;;5054828;28;20033;-73
2021/11/07 01:42:40;;;;;;;6.32;3.53;;;;;;;;;;5054789;28;20381;-72
2021/11/07 01:45:21;;;;;;;5.45;3.78;;;;;;;;;;5054926;28;20540;-72
2021/11/07 01:47:51;;;;;;;13.02;3.38;;;;;;;;;;5054568;28;20046;-72
2021/11/07 01:50:17;;;;;;;8.20;3.47;;;;;;;;;;5054363;28;20040;-72
2021/11/07 01:52:44;;;;;;;5.28;3.25;;;;;;;;;;5054446;28;20048;-72
2021/11/07 01:55:17;;;;;;;4.55;3.40;;;;;;;;;;5053205;28;20028;-72
2021/11/07 01:57:44;;;;;;;13.82;3.90;;;;;;;;;;5053430;28;20028;-73
2021/11/07 02:00:15;;;;;;;7.03;3.60;;;;;;;;;;5051710;28;20079;-73
2021/11/07 02:02:41;;;;;;;6.82;3.88;;;;;;;;;;5051635;28;20099;-73
2021/11/07 02:05:07;;;;;;;5.45;3.60;;;;;;;;;;5053058;28;20038;-72
2021/11/07 02:07:34;;;;;;;5.45;3.55;;;11.30;67.40;;;;;;5054001;28;20098;-72
2021/11/07 02:10:04;;;;;;;4.85;3.60;;;11.30;68.80;;;;;;5054131;28;20515;-72
2021/11/07 02:12:29;;;;;;;5.72;3.60;;;11.30;68.60;;;;;;5053663;28;20596;-73
2021/11/07 02:14:55;;;;;;;5.82;3.28;;;11.30;68.50;;;;;;5054068;28;20100;-72
2021/11/07 02:17:21;;;;;;;6.07;3.40;;;11.30;68.70;;;;;;5053749;28;20036;-73
2021/11/07 02:19:47;;;;;;;5.82;3.28;;;11.30;68.80;;;;;;5053902;28;20033;-72
2021/11/07 02:22:13;;;;;;;9.25;3.80;;;11.30;68.50;;;;;;5053619;28;20558;-73
2021/11/07 02:24:40;;;;;;;7.13;3.60;;;11.30;68.10;;;;;;5053691;28;20017;-73
2021/11/07 02:27:06;;;;;;;6.63;4.10;;;11.30;67.80;;;;;;5053673;28;20079;-73
2021/11/07 02:29:33;;;;;;;8.63;3.58;;;11.30;67.80;;;;;;5053305;28;20508;-73
2021/11/07 02:32:00;;;;;;;5.85;3.92;;;11.30;67.80;;;;;;5053822;28;20377;-73
2021/11/07 02:34:28;;;;;;;8.23;3.65;;;11.30;67.60;;;;;;5052437;28;20023;-72
2021/11/07 02:36:54;;;;;;;7.13;3.03;;;11.30;67.30;;;;;;5053474;28;20020;-73
2021/11/07 02:39:21;;;;;;;3.85;2.78;;;11.30;66.80;;;;;;5053763;28;20033;-72
2021/11/07 02:41:47;;;;;;;6.20;3.08;;;11.30;66.20;;;;;;5053490;28;20048;-73
2021/11/07 02:44:34;;;;;;;5.22;2.50;;;11.30;65.80;;;;;;5053217;28;20055;-72
2021/11/07 02:47:05;;;;;;;5.70;2.97;;;11.30;65.60;;;;;;5053254;28;20024;-72
2021/11/07 02:49:32;;;;;;;4.90;2.60;;;11.30;65.30;;;;;;5053645;28;20033;-72
2021/11/07 02:51:59;;;;;;;5.95;2.53;;;11.30;65.20;;;;;;5052984;28;20025;-72
2021/11/07 02:54:25;;;;;;;6.05;2.50;;;11.30;65.20;;;;;;5052923;28;20037;-72
2021/11/07 02:56:52;;;;;;;3.03;2.45;;;11.40;65.00;;;;;;5051967;28;20544;-73
2021/11/07 02:59:26;;;;;;;5.70;2.88;;;11.40;65.10;;;;;;5053019;28;20087;-72
2021/11/07 03:01:54;;;;;;;4.88;2.35;;;11.40;65.50;;;;;;5053196;28;20033;-72
2021/11/07 03:04:21;;;;;;;2.83;2.20;;;11.40;65.60;;;;;;5052784;28;20056;-73
2021/11/07 03:06:46;;;;;;;4.40;2.10;;;11.40;65.70;;;;;;5052761;28;20025;-72
2021/11/07 03:09:29;;;;;;;3.38;2.30;;;11.40;65.80;;;;;;5052785;28;20036;-72
2021/11/07 03:11:55;;;;;;;3.45;2.35;;;11.50;66.10;;;;;;5053401;28;20416;-72
2021/11/07 03:14:27;;;;;;;5.70;2.45;;;11.50;66.00;;;;;;5052891;28;20347;-73
2021/11/07 03:16:54;;;;;;;5.50;2.20;;;11.50;65.90;;;;;;5052855;28;20103;-73
2021/11/07 03:19:22;;;;;;;3.60;2.15;;;11.50;65.90;;;;;;5052788;28;20473;-72
2021/11/07 03:21:50;;;;;;;3.60;2.42;;;11.50;66.30;;;;;;5052555;28;20025;-73
2021/11/07 03:24:17;;;;;;;3.42;1.88;;;11.50;66.60;;;;;;5052662;28;20036;-72
2021/11/07 03:26:43;;;;;;;4.38;2.20;;;11.50;66.70;;;;;;5052785;28;20412;-73
2021/11/07 03:29:10;;;;;;;5.15;2.45;;;11.50;66.40;;;;;;5052849;28;20037;-73
2021/11/07 03:34:16;;;;;;;3.72;2.45;;;11.50;66.50;;;;;;5052511;28;20029;-72
2021/11/07 03:36:52;;;;;;;2.45;2.00;;;11.40;66.60;;;;;;5052853;28;20025;-73
2021/11/07 03:39:19;;;;;;;3.53;2.05;;;11.40;67.50;;;;;;5052805;28;20025;-73
2021/11/07 03:41:46;;;;;;;3.17;1.92;;;11.40;67.80;;;;;;5052764;28;20029;-73
2021/11/07 03:44:13;;;;;;;3.10;1.98;;;11.40;68.20;;;;;;5052876;28;20469;-73
2021/11/07 03:46:40;;;;;;;2.10;1.67;;;11.40;69.20;;;;;;5052771;28;20029;-73
2021/11/07 03:49:08;;;;;;;3.92;2.00;;;11.40;69.20;;;;;;5052432;28;20045;-73
2021/11/07 03:51:35;;;;;;;4.07;2.28;;;11.40;68.90;;;;;;5052546;28;20018;-73
2021/11/07 03:54:01;;;;;;;2.33;1.67;;;11.40;68.80;;;;;;5052219;28;20021;-73
2021/11/07 03:56:27;;;;;;;3.88;1.63;;;11.40;68.50;;;;;;5052921;28;20377;-73
2021/11/07 03:58:53;;;;;;;2.17;1.63;;;11.40;68.20;;;;;;5052552;28;20095;-73
2021/11/07 04:01:19;;;;;;;6.07;2.03;;;11.40;67.90;;;;;;5052686;28;20079;-73
2021/11/07 04:03:46;;;;;;;2.90;2.00;;;11.40;68.20;;;;;;5052665;28;20032;-73
2021/11/07 04:06:12;;;;;;;3.22;2.00;;;11.40;68.20;;;;;;5052652;28;20033;-73
2021/11/07 04:08:39;;;;;;;2.80;1.90;;;11.40;68.40;;;;;;5052265;28;20381;-73
2021/11/07 04:11:05;;;;;;;3.05;1.80;;;11.40;68.70;;;;;;5052522;28;20435;-72
2021/11/07 04:13:31;;;;;;;3.35;1.85;;;11.40;68.80;;;;;;5052515;28;20029;-72
2021/11/07 04:15:57;;;;;;;2.45;1.83;;;11.40;68.90;;;;;;5052596;28;20017;-73
2021/11/07 04:18:23;;;;;;;3.50;2.17;;;11.40;69.10;;;;;;5053672;28;20535;-73
2021/11/07 04:20:49;;;;;;;5.32;2.05;;;11.40;69.40;;;;;;5056439;28;20055;-72
2021/11/07 04:23:15;;;;;;;5.43;2.08;;;11.40;69.50;;;;;;5056052;28;20028;-73
2021/11/07 04:25:41;;;;;;;4.90;2.38;;;11.40;69.50;;;;;;5056410;28;20021;-73
2021/11/07 04:28:07;;;;;;;4.75;2.15;;;11.40;69.60;;;;;;5056039;28;20021;-73
2021/11/07 04:30:34;;;;;;;3.40;1.90;;;11.40;70.60;;;;;;5056306;28;20036;-73
2021/11/07 04:33:00;;;;;;;3.58;2.15;;;11.30;71.50;;;;;;5056044;28;20013;-73
2021/11/07 04:35:28;;;;;;;4.15;2.20;;;11.30;71.90;;;;;;5056124;28;20358;-73
2021/11/07 04:37:54;;;;;;;4.10;2.30;;;11.30;72.10;;;;;;5056019;28;20036;-72
2021/11/07 04:40:20;;;;;;;5.45;2.17;;;11.30;72.30;;;;;;5055998;28;20052;-73
2021/11/07 04:42:47;;;;;;;5.25;2.53;;;11.20;72.30;;;;;;5055725;28;20021;-73
2021/11/07 04:45:13;;;;;;;3.33;2.20;;;11.30;72.60;;;;;;5054604;28;20048;-73
2021/11/07 04:47:39;;;;;;;5.80;2.67;;;11.30;72.60;;;;;;5055615;28;20021;-72
2021/11/07 04:50:07;;;;;;;3.83;2.13;;;11.20;72.80;;;;;;5055707;28;20036;-73
2021/11/07 04:52:32;;;;;;;5.47;2.53;;;11.20;73.00;;;;;;5055566;28;20017;-73
2021/11/07 04:55:00;;;;;;;4.80;2.67;;;11.20;73.10;;;;;;5054360;28;20090;-73
2021/11/07 04:57:26;;;;;;;4.20;2.70;;;11.20;73.30;;;;;;5055598;28;20029;-72
2021/11/07 04:59:51;;;;;;;6.95;2.90;;;11.20;73.70;;;;;;5054282;28;20051;-72
2021/11/07 05:02:17;;;;;;;3.30;2.50;;;11.20;74.00;;;;;;5055321;28;20040;-73
2021/11/07 05:04:43;;;;;;;4.75;2.60;;;11.20;74.00;;;;;;5055820;28;20035;-73
2021/11/07 05:07:09;;;;;;;5.93;2.90;;;11.20;74.10;;;;;;5055517;28;20107;-72
2021/11/07 05:09:35;;;;;;;4.50;2.72;;;11.20;74.30;;;;;;5055072;28;20091;-72
2021/11/07 05:12:01;;;;;;;6.82;2.72;;;11.20;74.30;;;;;;5055356;28;20025;-73
2021/11/07 05:14:27;;;;;;;6.57;2.83;;;11.20;75.00;;;;;;5055354;28;20025;-72
2021/11/07 05:16:53;;;;;;;6.03;3.00;;;11.20;74.30;;;;;;5055090;28;20052;-73
2021/11/07 05:19:19;;;;;;;4.22;2.38;;;11.20;74.40;;;;;;5055190;28;20397;-72
2021/11/07 05:21:45;;;;;;;4.50;2.50;;;11.20;74.40;;;;;;5055144;28;20504;-72
2021/11/07 05:24:11;;;;;;;3.85;2.17;;;11.20;74.60;;;;;;5054997;28;20074;-72
2021/11/07 05:26:36;;;;;;;3.28;2.30;;;11.20;74.50;;;;;;5054938;28;20481;-73
2021/11/07 05:29:05;;;;;;;5.70;2.50;;;11.20;75.10;;;;;;5054535;28;20033;-72
2021/11/07 05:31:31;;;;;;;4.22;2.20;;;11.20;74.90;;;;;;5053669;28;20032;-72
2021/11/07 05:33:57;;;;;;;5.90;2.38;;;11.20;75.30;;;;;;5055041;28;20025;-73
2021/11/07 05:36:23;;;;;;;4.72;2.17;;;11.20;75.60;;;;;;5054637;28;20100;-72
2021/11/07 05:38:48;;;;;;;2.70;2.10;;;11.20;75.10;;;;;;5054517;28;20037;-73
2021/11/07 05:41:14;;;;;;;2.60;2.10;;;11.20;74.90;;;;;;5054920;28;20028;-72
2021/11/07 05:43:41;;;;;;;3.83;2.58;;;11.10;74.70;;;;;;5054935;28;20024;-72
2021/11/07 05:46:07;;;;;;;3.92;2.17;;;11.10;75.00;;;;;;5054437;28;20029;-72
2021/11/07 05:48:32;;;;;;;5.47;2.33;;;11.20;75.10;;;;;;5053102;28;20040;-72
2021/11/07 05:50:58;;;;;;;4.18;2.58;;;11.20;75.40;;;;;;5054781;28;20484;-72
2021/11/07 05:53:24;;;;;;;3.85;2.33;;;11.20;75.50;;;;;;5054593;28;20036;-72
2021/11/07 05:55:51;;;;;;;5.40;2.00;;;11.20;75.60;;;;;;5054515;28;20128;-73
2021/11/07 05:58:17;;;;;;;3.63;2.30;;;11.20;75.30;;;;;;5054161;28;20078;-73
2021/11/07 06:00:44;;;;;;;4.53;2.38;;;11.20;75.10;;;;;;5054486;28;20100;-73
2021/11/07 06:03:09;;;;;;;3.70;2.72;;;11.20;75.50;;;;;;5054232;28;20032;-72
2021/11/07 06:05:36;;;;;;;3.38;2.70;;;11.20;76.20;;;;;;5052844;28;20033;-72
2021/11/07 06:08:02;;;;;;;4.75;2.70;;;11.20;76.60;;;;;;5053932;28;20035;-73
2021/11/07 06:10:28;;;;;;;5.22;3.58;;;11.20;76.60;;;;;;5054135;28;20033;-72
2021/11/07 06:12:55;;;;;;;4.15;2.83;;;11.20;76.90;;;;;;5053951;28;20508;-72
2021/11/07 06:15:21;;;;;;;5.45;2.85;;;11.20;76.90;;;;;;5054223;28;20108;-73
2021/11/07 06:17:46;;;;;;;3.63;2.58;;;11.10;76.60;;;;;;5053728;28;20482;-72
2021/11/07 06:20:12;;;;;;;4.22;2.65;;;11.10;76.40;;;;;;5054056;28;20024;-73
2021/11/07 06:22:38;;;;;;;4.90;3.05;;;11.10;76.20;;;;;;5052933;28;20021;-73
2021/11/07 06:25:05;;;;;;;4.30;2.70;;;11.10;76.30;;;;;;5052589;28;20116;-72
2021/11/07 06:27:31;;;;;;;8.02;2.83;;;11.10;76.20;;;;;;5053540;28;20032;-72
2021/11/07 06:29:58;;;;;;;5.95;2.55;;;11.10;76.10;;;;;;5053876;28;20037;-73
2021/11/07 06:32:24;;;;;;;6.03;3.00;;;11.10;75.90;;;;;;5053933;28;20028;-72
2021/11/07 06:34:49;;;;;;;6.35;2.53;;;11.10;76.00;;;;;;5053687;28;20485;-73
2021/11/07 06:37:15;;;;;;;5.55;2.42;;;11.10;76.10;;;;;;5053405;28;20024;-73
2021/11/07 06:39:41;;;;;;;4.38;2.58;;;11.10;76.20;;;;;;5052916;28;20381;-72
2021/11/07 06:42:09;;;;;;;3.42;2.45;;;11.10;76.20;;;;;;5053630;28;20508;-73
2021/11/07 06:44:34;;;;;;;3.53;2.25;;;11.10;76.30;;;;;;5053624;28;20025;-73
2021/11/07 06:47:01;;;;;;;7.15;2.60;;;11.10;76.40;;;;;;5053448;28;20170;-71
2021/11/07 06:49:27;;;;;;;3.35;2.60;;;11.10;76.80;;;;;;5052130;28;20041;-72
2021/11/07 06:51:53;;;;;;;4.07;2.47;;;11.20;76.90;;;;;;5053288;28;20047;-72
2021/11/07 06:54:21;;;;;;;4.53;2.70;;;11.20;76.60;;;;;;5053235;28;20027;-73
2021/11/07 06:56:47;;;;;;;6.75;3.05;;;11.20;76.50;;;;;;5053302;28;20364;-73
2021/11/07 06:59:12;;;;;;;8.60;3.03;;;11.20;76.40;;;;;;5053301;28;20092;-72
2021/11/07 07:01:38;;;;;;;5.40;3.03;;;11.20;76.30;;;;;;5053579;28;20469;-73
2021/11/07 07:04:05;;;;;;;4.70;2.80;;;11.20;76.40;;;;;;5053400;28;20021;-72
2021/11/07 07:06:31;;;;;;;5.28;3.05;;;11.20;76.90;;;;;;5053147;28;20535;-72
2021/11/07 07:09:05;;;;;;;4.25;2.72;;;11.20;77.30;;;;;;5052816;28;20036;-72
2021/11/07 07:11:39;;;;;;;5.22;2.88;;;11.20;77.30;;;;;;5051927;28;20365;-72
2021/11/07 07:14:09;;;;;;;5.75;3.13;;;11.20;77.30;;;;;;5052048;28;20108;-73
2021/11/07 07:16:53;;;;;;;3.80;2.90;;;11.20;77.30;;;;;;5052986;28;20100;-72
2021/11/07 07:25:01;;;;;;;5.88;2.90;;;11.30;80.00;;;;;;5052938;28;20029;-72
2021/11/07 07:32:39;;;;;;;3.90;2.67;;;11.30;82.50;;;;;;5053363;28;20060;-73
2021/11/07 07:35:06;;;;;;;4.25;2.70;;;11.30;83.90;;;;;;5052889;28;20025;-73
2021/11/07 07:37:32;;;;;;;4.57;2.88;;;11.30;84.60;;;;;;5052811;28;20117;-72
2021/11/07 07:39:58;;;;;;;5.10;3.17;;;11.30;84.40;;;;;;5056645;28;20437;-73
2021/11/07 07:42:24;;;;;;;4.97;3.00;;;11.30;84.60;;;;;;5052870;28;20029;-72
2021/11/07 07:44:52;;;;;;;5.82;2.80;;;11.30;85.00;;;;;;5052647;28;20021;-72
2021/11/07 07:47:18;;;;;;;3.67;2.67;;;11.30;85.60;;;;;;5052660;28;20036;-72
2021/11/07 07:49:46;;;;;;;5.18;2.80;;;11.30;86.50;;;;;;5052650;28;20069;-72
2021/11/07 07:52:12;;;;;;;5.63;3.03;;;;;;;;;;5055073;28;20474;-72
2021/11/07 07:54:38;;;;;;;6.38;3.55;;;11.20;77.40;;;;;;5055686;28;20037;-73
2021/11/07 07:57:04;;;;;;;6.82;3.90;;;11.20;78.20;;;;;;5053959;28;20032;-73
2021/11/07 07:59:30;;;;;;;3.97;3.20;;;11.20;78.30;;;;;;5053889;28;20028;-73
2021/11/07 08:01:58;;;;;;;7.35;3.45;;;11.20;78.40;;;;;;5055404;28;20032;-73
2021/11/07 08:04:24;;;;;;;6.63;3.45;;;11.20;78.50;;;;;;5056497;28;20430;-72
2021/11/07 08:06:50;;;;;;;5.57;3.92;;;11.30;78.40;;;;;;5056537;28;20351;-72
2021/11/07 08:09:15;;;;;;;5.47;3.55;;;11.30;78.30;;;;;;5056279;28;20044;-72
2021/11/07 08:11:42;;;;;;;7.75;3.50;;;11.30;78.30;;;;;;5055085;28;20477;-73
2021/11/07 08:14:07;;;;;;;7.82;3.90;;;11.30;78.40;;;;;;5056186;28;20495;-73
2021/11/07 08:16:34;;;;;;;7.47;3.50;;;11.30;78.50;;;;;;5056137;28;20049;-73
2021/11/07 08:19:00;;;;;;;4.97;3.17;;;11.30;79.20;;;;;;5056216;28;20037;-72
2021/11/07 08:21:30;;;;;;;5.22;2.95;;;11.30;79.00;;;;;;5056406;28;20087;-73
2021/11/07 08:23:56;;;;;;;6.60;3.00;;;11.40;78.90;;;;;;5055845;28;20027;-72
2021/11/07 08:26:22;;;;;;;4.22;2.50;;;11.40;79.30;;;;;;5052947;28;20036;-72
2021/11/07 08:28:48;;;;;;;4.40;3.00;;;11.30;79.20;;;;;;5053268;28;20033;-72
2021/11/07 08:31:24;;;;;;;5.93;2.70;;;11.40;79.20;;;;;;5054098;28;20508;-72
2021/11/07 08:33:50;;;;;;;3.85;2.58;;;11.40;79.20;;;;;;5056092;28;20431;-72
2021/11/07 08:36:21;;;;;;;4.97;2.58;;;11.50;78.90;;;;;;5055930;28;20033;-72
2021/11/07 08:38:59;;;;;;;4.97;2.50;;;11.50;78.50;;;;;;5055576;28;20021;-73
2021/11/07 08:41:26;;;;;;;4.00;2.50;;;11.50;78.20;;;;;;5055726;28;20401;-72
2021/11/07 09:00:29;;;;;;;7.32;3.75;;;11.70;77.00;;;;;;5055913;28;20094;-75
2021/11/07 09:08:42;;;;;;;4.85;3.45;;;;;;;;;;5011336;28;20130;-75
2021/11/07 09:11:10;;;;;;;5.80;3.10;;;11.90;75.80;;;;;;5043793;28;20069;-76
2021/11/07 09:13:37;;;;;;;4.55;3.13;;;;;;;;;;5052366;28;20027;-74
2021/11/07 09:16:03;;;;;;;5.50;3.15;;;12.00;75.30;;;;;;5053704;28;20112;-74
2021/11/07 09:18:29;;;;;;;5.72;3.20;;;12.00;75.50;;;;;;5054272;28;20077;-74
2021/11/07 09:31:07;;;;;;;6.30;2.63;;;12.20;74.50;;;;;;5053060;28;20154;-72
2021/11/07 09:36:24;;;;;;;6.57;3.72;;;12.30;74.00;;;;;;5051054;28;20473;-73
2021/11/07 09:44:09;;;;;;;157.15;8.73;;;12.60;75.10;;;;;;5034296;28;20493;-77
2021/11/07 09:46:40;;;;;;;11.98;3.60;;;;;;;;;;5053314;28;20055;-78
2021/11/07 09:49:31;;;;;;;5.90;3.78;;;12.60;73.40;;;;;;5054317;28;20048;-78
2021/11/07 09:52:08;;;;;;;6.03;3.63;;;12.60;73.80;;;;;;5054072;28;20029;-78
2021/11/07 09:54:34;;;;;;;3.17;2.75;;;12.70;73.80;;;;;;5053427;28;20452;-79
2021/11/07 09:57:01;;;;;;;8.57;3.15;;;12.70;73.80;;;;;;5054111;28;20389;-79
2021/11/07 09:59:29;;;;;;;4.47;3.30;;;12.70;74.00;;;;;;5050474;28;20036;-74
2021/11/07 10:02:00;;;;;;;4.22;3.00;;;12.70;74.00;;;;;;5050428;28;20065;-78
2021/11/07 10:04:28;;;;;;;6.78;3.60;;;12.70;73.70;;;;;;5051698;28;20094;-79
2021/11/07 10:06:58;;;;;;;9.05;3.30;;;12.80;73.80;;;;;;5053362;28;20036;-77
2021/11/07 10:09:41;;;;;;;5.07;3.28;;;;;;;;;;5051470;28;20375;-78
2021/11/07 10:12:13;;;;;;;7.25;3.60;;;13.20;85.00;;;;;;5052757;28;20017;-78
2021/11/07 10:14:46;;;;;;;4.97;3.17;;;13.30;76.30;;;;;;5053741;28;20049;-80
2021/11/07 10:17:28;;;;;;;4.72;2.90;;;13.40;85.30;;;;;;5054001;28;20555;-77
2021/11/07 10:20:27;;;;;;;6.70;3.30;;;13.30;72.50;;;;;;5054093;28;20535;-78
2021/11/07 10:22:58;;;;;;;6.22;2.88;;;13.50;80.20;;;;;;5051403;28;20030;-78
2021/11/07 10:28:59;;;;;;;8.23;2.85;;;13.60;72.50;;;;;;5053205;28;20036;-78
2021/11/07 10:31:34;;;;;;;4.18;2.38;;;13.70;74.60;;;;;;5053907;28;20018;-78
2021/11/07 10:53:57;;;;;;;4.13;1.80;;;14.00;82.00;;;;;;5053394;28;20397;-79
2021/11/07 10:56:23;;;;;;;2.80;1.60;;;14.10;84.20;;;;;;5053536;28;20044;-77
2021/11/07 10:58:50;;;;;;;3.33;2.05;;;14.10;78.70;;;;;;5053470;28;20025;-78
2021/11/07 11:01:21;;;;;;;3.65;1.80;;;14.10;81.00;;;;;;5053317;28;20139;-77
2021/11/07 11:03:54;;;;;;;4.68;2.28;;;14.20;86.00;;;;;;5053042;28;20473;-78
2021/11/07 11:06:20;;;;;;;7.40;4.32;;;14.30;85.00;;;;;;5053241;28;20447;-78
2021/11/07 11:11:33;;;;;;;5.37;2.33;;;14.40;73.20;;;;;;5053201;28;20087;-77
2021/11/07 11:14:09;;;;;;;5.28;1.65;;;14.40;79.60;;;;;;5053204;28;20108;-77
2021/11/07 11:32:36;;;;;;;22.45;2.95;;;14.40;67.80;;;;;;5052809;28;20028;-69
2021/11/07 11:40:13;;;;;;;2.43;1.23;;;14.40;68.00;;;;;;5052603;28;20033;-73
2021/11/07 11:45:11;;;;;;;1.97;1.40;;;14.40;67.70;;;;;;5052940;28;20493;-73
2021/11/07 11:50:57;;;;;;;5.10;2.80;;;14.50;68.00;;;;;;5052863;28;20041;-74
2021/11/07 11:56:11;;;;;;;4.22;2.17;;;14.40;68.20;;;;;;5052664;28;20436;-73
2021/11/07 11:58:50;;;;;;;4.05;2.08;;;14.40;69.00;;;;;;5049129;28;20021;-74
2021/11/07 12:01:28;;;;;;;5.90;2.28;;;14.50;69.50;;;;;;5049923;28;20119;-73
2021/11/07 12:04:12;;;;;;;3.88;2.30;;;14.40;68.60;;;;;;5050882;28;20026;-73
2021/11/07 12:12:17;;;;;;;4.82;2.10;;;14.40;69.40;;;;;;5052648;28;20048;-73
2021/11/07 12:15:16;;;;;;;6.68;2.05;;;14.50;69.20;;;;;;5052707;28;20385;-74
2021/11/07 12:17:47;;;;;;;5.72;1.95;;;14.60;68.70;;;;;;5044321;28;20044;-73
2021/11/07 12:20:25;;;;;;;5.57;2.00;;;14.70;68.70;;;;;;5052729;28;20025;-73
2021/11/07 12:23:11;;;;;;;4.85;2.00;;;14.70;67.80;;;;;;5051210;28;20031;-73
2021/11/07 12:25:37;;;;;;;5.72;1.70;;;14.80;67.80;;;;;;5049207;28;20128;-71
2021/11/07 12:28:02;;;;;;;6.28;2.10;;;14.90;68.00;;;;;;5049192;28;20127;-73
2021/11/07 12:30:30;;;;;;;5.72;3.20;;;14.90;67.90;;;;;;5051096;28;20040;-72
2021/11/07 12:33:08;;;;;;;2.72;1.52;;;14.90;67.70;;;;;;5052085;28;20037;-71
2021/11/07 12:35:43;;;;;;;3.25;1.90;;;15.00;67.00;;;;;;5052172;28;20029;-70
2021/11/07 12:41:13;;;;;;;4.50;2.00;;;15.00;67.20;;;;;;5056073;28;20047;-73
2021/11/07 12:43:42;;;;;;;3.55;1.67;;;15.10;67.20;;;;;;5055834;28;20028;-73
2021/11/07 12:46:34;;;;;;;2.33;1.67;;;15.10;67.10;;;;;;5055591;28;20025;-73
2021/11/07 12:49:27;;;;;;;4.75;1.58;;;15.10;67.40;;;;;;5055295;28;20025;-72
2021/11/07 12:51:58;;;;;;;;;;;15.20;67.60;;;;;;5055860;28;20417;-73
2021/11/07 12:54:27;;;;;;;3.00;1.70;;;15.20;67.40;;;;;;5054941;28;19904;-73
2021/11/07 12:57:03;;;;;;;5.32;1.98;;;15.20;67.10;;;;;;5054087;28;20029;-72
2021/11/07 12:59:52;;;;;;;3.08;1.63;;;15.20;67.00;;;;;;5055519;28;20021;-72
2021/11/07 13:02:23;;;;;;;2.83;1.70;;;15.30;67.10;;;;;;5054952;28;20033;-72
2021/11/07 13:05:06;;;;;;;3.05;1.65;;;15.20;67.40;;;;;;5055092;28;20071;-72
2021/11/07 13:08:21;;;;;;;3.88;1.73;;;15.20;67.40;;;;;;5053438;28;20132;-72
2021/11/07 13:10:47;;;;;;;6.45;2.50;;;15.20;67.50;;;;;;5048783;28;20041;-75
2021/11/07 13:16:04;;;;;;;2.67;1.83;;;15.10;67.90;;;;;;5052762;28;20044;-76
2021/11/07 13:21:58;;;;;;;2.92;1.70;;;15.10;67.90;;;;;;5055264;28;20123;-74
2021/11/07 13:27:11;;;;;;;4.85;2.13;;;15.10;68.20;;;;;;5063134;28;20086;-75
2021/11/07 13:32:34;;;;;;;4.88;2.10;;;15.00;67.70;;;;;;5055030;28;20029;-74
2021/11/07 13:35:08;;;;;;;4.57;2.10;;;15.00;67.70;;;;;;5052233;28;20029;-74
2021/11/07 13:37:44;;;;;;;5.47;2.38;;;15.00;68.10;;;;;;5051770;28;20036;-71
2021/11/07 13:40:21;;;;;;;6.20;2.20;;;15.00;68.20;;;;;;5052437;28;20069;-74
2021/11/07 13:42:47;;;;;;;2.67;1.70;;;14.90;68.30;;;;;;5054226;28;20013;-74
2021/11/07 13:45:41;;;;;;;5.40;1.83;;;14.90;68.30;;;;;;5054536;28;20029;-73
2021/11/07 13:48:24;;;;;;;4.93;2.10;;;14.90;68.30;;;;;;5052297;28;20033;-74
2021/11/07 13:50:52;;;;;;;;;;;14.90;68.20;;;;;;5053038;28;20489;-74
2021/11/07 13:53:34;;;;;;;6.40;1.95;;;14.90;68.10;;;;;;5054323;28;19908;-74
2021/11/07 13:56:03;;;;;;;2.85;1.95;;;14.90;68.20;;;;;;5054345;28;20374;-74
2021/11/07 13:58:31;;;;;;;3.30;1.75;;;14.90;68.20;;;;;;5053006;28;20071;-74
2021/11/07 14:01:01;;;;;;;2.50;1.75;;;14.90;68.20;;;;;;5053747;28;20536;-74
2021/11/07 14:03:26;;;;;;;8.48;2.20;;;14.90;68.10;;;;;;5052469;28;20389;-74
2021/11/07 14:06:02;;;;;;;3.83;1.88;;;14.80;68.10;;;;;;5053886;28;20021;-73
2021/11/07 14:08:38;;;;;;;3.20;1.80;;;14.80;68.40;;;;;;5053822;28;20025;-73
2021/11/07 14:11:04;;;;;;;2.80;1.75;;;14.80;68.50;;;;;;5054165;28;20036;-74
2021/11/07 14:13:59;;;;;;;5.63;2.22;;;14.80;68.30;;;;;;5053924;28;20032;-73
2021/11/07 14:16:41;;;;;;;8.45;2.35;;;14.80;68.50;;;;;;5054032;28;20021;-75
2021/11/07 14:19:08;;;;;;;3.85;2.20;;;14.80;68.90;;;;;;5053189;28;20060;-73
2021/11/07 14:21:41;;;;;;;5.28;2.97;;;14.80;68.90;;;;;;5053730;28;20021;-71
2021/11/07 14:24:20;;;;;;;4.72;3.40;;;14.80;68.90;;;;;;5053913;28;20021;-75
2021/11/07 14:26:52;;;;;;;6.10;3.70;;;14.80;68.80;;;;;;5052442;28;20032;-74
2021/11/07 14:31:55;;;;;;;5.25;3.35;;;14.80;68.70;;;;;;5053782;28;20386;-71
2021/11/07 14:34:36;;;;;;;6.60;3.03;;;14.80;68.90;;;;;;5053443;28;20473;-75
2021/11/07 14:37:08;;;;;;;6.80;3.15;;;14.80;69.10;;;;;;5053476;28;20151;-74
2021/11/07 14:39:53;;;;;;;4.80;2.70;;;14.70;69.90;;;;;;5053351;28;20462;-73
2021/11/07 14:42:36;;;;;;;6.47;2.83;;;14.70;69.60;;;;;;5052105;28;20025;-75
2021/11/07 15:07:53;;;;;;;8.40;2.92;;;14.50;71.30;;;;;;5052949;28;20031;-75
2021/11/07 15:13:29;;;;;;;4.50;3.00;;;14.40;71.00;;;;;;5052993;28;20062;-75
2021/11/07 15:18:43;;;;;;;6.30;2.95;;;14.20;71.70;;;;;;5052324;28;20056;-75
2021/11/07 15:24:02;;;;;;;6.22;3.03;;;14.20;71.80;;;;;;5052929;28;20060;-72
2021/11/07 15:26:39;;;;;;;6.53;3.75;;;14.10;71.80;;;;;;5052685;28;20025;-75
2021/11/07 15:29:15;;;;;;;5.93;3.13;;;14.10;71.80;;;;;;5052297;28;20045;-74
2021/11/07 15:31:41;;;;;;;6.30;3.85;;;14.10;72.10;;;;;;5052462;28;20442;-75
2021/11/07 15:34:10;;;;;;;5.15;3.10;;;14.00;72.20;;;;;;5050822;28;20375;-74
2021/11/07 15:36:47;;;;;;;8.10;4.05;;;14.00;72.40;;;;;;5052702;28;20029;-76
2021/11/07 15:39:19;;;;;;;10.55;5.95;;;14.00;72.50;;;;;;5052434;28;20366;-75
2021/11/07 15:42:05;;;;;;;9.57;6.28;;;14.00;72.70;;;;;;5052439;28;20024;-73
2021/11/07 15:44:36;;;;;;;11.95;5.18;;;14.00;73.00;;;;;;5052664;28;20031;-76
2021/11/07 15:47:03;;;;;;;10.80;4.88;;;13.90;73.20;;;;;;5052775;28;20029;-71
2021/11/07 15:49:34;;;;;;;14.18;4.90;;;13.90;73.60;;;;;;5052310;28;20448;-75
2021/11/07 15:52:09;;;;;;;13.20;5.70;;;13.90;73.80;;;;;;5052468;28;20048;-75
2021/11/07 15:54:40;;;;;;;9.98;5.32;;;13.80;73.80;;;;;;5052639;28;20074;-75
2021/11/07 15:57:24;;;;;;;12.55;6.38;;;13.80;73.60;;;;;;5052604;28;20505;-75
2021/11/07 16:00:54;;;;;;;10.75;6.13;;;13.80;74.00;;;;;;5052353;28;20021;-74
2021/11/07 16:05:37;;;;;;;11.32;6.78;;;13.70;74.30;;;;;;5052999;28;20040;-76
2021/11/07 16:08:17;;;;;;;;;;;13.70;74.10;;;;;;5052781;28;20025;-76
2021/11/07 16:13:29;;;;;;;9.23;5.70;;;13.50;75.30;;;;;;5055246;28;20470;-76
2021/11/07 16:18:27;;;;;;;10.95;6.15;;;13.50;74.40;;;;;;5056153;28;20076;-72
2021/11/07 16:20:53;;;;;;;8.45;6.30;;;13.50;74.60;;;;;;5056317;28;20033;-73
2021/11/07 16:23:20;;;;;;;8.07;5.45;;;13.40;74.70;;;;;;5056360;28;20572;-77
2021/11/07 16:25:49;;;;;;;7.05;5.30;;;13.40;74.60;;;;;;5055850;28;20056;-76
2021/11/07 16:28:16;;;;;;;6.85;5.30;;;13.30;74.80;;;;;;5054519;28;20033;-74
2021/11/07 16:30:42;;;;;;;7.97;5.65;;;13.30;75.10;;;;;;5054699;28;20033;-73